createdAt,value
2019-05-18T00:00:41.820Z,95116.40
2019-05-18T00:03:12.237Z,95114.05
2019-05-18T00:05:44.075Z,95112.68
2019-05-18T00:08:14.568Z,95114.81
2019-05-18T00:10:45.148Z,95113.83
2019-05-18T00:13:18.493Z,95119.98
2019-05-18T00:15:49.313Z,95117.54
2019-05-18T00:18:19.755Z,95120.48
2019-05-18T00:20:50.543Z,95116.23
2019-05-18T00:23:28.273Z,95116.47
2019-05-18T00:26:03.759Z,95113.23
2019-05-18T00:28:38.226Z,95116.13
2019-05-18T00:31:09.077Z,95109.77
2019-05-18T00:33:47.772Z,95107.37
2019-05-18T00:36:21.031Z,95113.48
2019-05-18T00:38:54.136Z,95112.77
2019-05-18T00:41:24.994Z,95107.70
2019-05-18T00:43:56.485Z,95101.33
2019-05-18T00:46:27.289Z,95104.21
2019-05-18T00:49:02.954Z,95103.64
2019-05-18T00:51:33.771Z,95102.30
2019-05-18T00:54:04.223Z,95103.86
2019-05-18T00:56:35.199Z,95100.41
2019-05-18T00:59:05.686Z,95103.84
2019-05-18T01:01:38.539Z,95105.44
2019-05-18T01:04:08.999Z,95097.68
2019-05-18T01:06:39.408Z,95093.74
2019-05-18T01:09:13.171Z,95098.23
2019-05-18T01:11:43.567Z,95092.33
2019-05-18T01:14:26.112Z,95090.73
2019-05-18T01:16:56.514Z,95089.42
2019-05-18T01:19:26.985Z,95086.71
2019-05-18T01:21:57.403Z,95090.43
2019-05-18T01:24:29.172Z,95093.88
2019-05-18T01:27:00.345Z,95090.11
2019-05-18T01:29:31.318Z,95093.55
2019-05-18T01:32:01.717Z,95089.83
2019-05-18T01:34:32.141Z,95091.17
2019-05-18T01:37:04.756Z,95084.54
2019-05-18T01:39:35.222Z,95083.23
2019-05-18T01:42:06.100Z,95087.22
2019-05-18T01:44:37.630Z,95089.30
2019-05-18T01:47:09.289Z,95085.03
2019-05-18T01:49:40.297Z,95088.72
2019-05-18T01:52:10.824Z,95091.58
2019-05-18T01:54:43.129Z,95096.53
2019-05-18T01:57:14.158Z,95093.55
2019-05-18T01:59:44.892Z,95092.78
2019-05-18T02:02:16.877Z,95095.19
2019-05-18T02:04:55.128Z,95099.38
2019-05-18T02:07:26.102Z,95097.53
2019-05-18T02:09:56.722Z,95095.63
2019-05-18T02:12:28.197Z,95094.50
2019-05-18T02:14:58.946Z,95094.23
2019-05-18T02:17:33.118Z,95094.47
2019-05-18T02:20:03.539Z,95096.30
2019-05-18T02:22:33.933Z,95093.62
2019-05-18T02:25:05.681Z,95099.66
2019-05-18T02:27:36.072Z,95101.48
2019-05-18T02:30:07.126Z,95097.75
2019-05-18T02:32:37.524Z,95096.42
2019-05-18T02:35:10.691Z,95098.80
2019-05-18T02:37:41.063Z,95092.70
2019-05-18T02:40:11.492Z,95095.03
2019-05-18T02:42:42.561Z,95097.13
2019-05-18T02:45:13.124Z,95094.97
2019-05-18T02:47:44.141Z,95094.42
2019-05-18T02:50:14.774Z,95088.31
2019-05-18T02:52:45.222Z,95083.75
2019-05-18T02:55:15.959Z,95084.86
2019-05-18T02:57:46.357Z,95074.20
2019-05-18T03:00:17.312Z,95068.97
2019-05-18T03:02:47.711Z,95075.03
2019-05-18T03:05:18.231Z,95076.57
2019-05-18T03:07:48.635Z,95078.84
2019-05-18T03:10:19.128Z,95070.09
2019-05-18T03:12:49.685Z,95079.64
2019-05-18T03:15:20.260Z,95067.20
2019-05-18T03:17:50.696Z,95074.55
2019-05-18T03:20:21.151Z,95072.64
2019-05-18T03:22:51.638Z,95071.48
2019-05-18T03:25:24.493Z,95075.14
2019-05-18T03:27:54.929Z,95075.86
2019-05-18T03:30:25.367Z,95070.89
2019-05-18T03:32:55.869Z,95073.85
2019-05-18T03:35:26.368Z,95078.59
2019-05-18T03:38:28.432Z,95077.55
2019-05-18T03:40:59.114Z,95076.43
2019-05-18T03:43:29.531Z,95077.16
2019-05-18T03:46:00.222Z,95074.05
2019-05-18T03:48:30.635Z,95068.80
2019-05-18T03:51:01.531Z,95073.09
2019-05-18T03:53:31.967Z,95071.55
2019-05-18T03:56:02.453Z,95074.20
2019-05-18T03:58:33.376Z,95072.36
2019-05-18T04:01:04.068Z,95072.91
2019-05-18T04:03:34.492Z,95073.55
2019-05-18T04:06:05.341Z,95073.64
2019-05-18T04:08:35.775Z,95069.67
2019-05-18T04:11:07.312Z,95072.05
2019-05-18T04:13:40.016Z,95081.03
2019-05-18T04:16:10.249Z,95070.72
2019-05-18T04:18:47.318Z,95071.89
2019-05-18T04:21:17.761Z,95070.38
2019-05-18T04:23:48.238Z,95065.23
2019-05-18T04:26:18.675Z,95058.69
2019-05-18T04:28:49.076Z,95065.09
2019-05-18T04:31:23.537Z,95062.45
2019-05-18T04:33:53.992Z,95070.20
2019-05-18T04:36:24.404Z,95073.98
2019-05-18T04:38:54.863Z,95075.08
2019-05-18T04:41:25.368Z,95075.93
2019-05-18T04:43:58.489Z,95074.92
2019-05-18T04:46:29.267Z,95072.05
2019-05-18T04:48:59.850Z,95078.47
2019-05-18T04:51:30.591Z,95074.33
2019-05-18T04:54:01.050Z,95075.72
2019-05-18T04:56:31.548Z,95078.17
2019-05-18T04:59:03.427Z,95076.38
2019-05-18T05:01:34.006Z,95077.98
2019-05-18T05:04:04.496Z,95078.56
2019-05-18T05:06:34.966Z,95076.73
2019-05-18T05:09:08.561Z,95067.70
2019-05-18T05:11:39.051Z,95071.96
2019-05-18T05:14:11.119Z,95074.06
2019-05-18T05:16:41.521Z,95072.41
2019-05-18T05:19:19.751Z,95078.18
2019-05-18T05:21:50.155Z,95064.17
2019-05-18T05:24:20.900Z,95068.21
2019-05-18T05:26:59.565Z,95076.55
2019-05-18T05:29:30.329Z,95068.36
2019-05-18T05:32:05.077Z,95068.92
2019-05-18T05:34:36.323Z,95072.75
2019-05-18T05:37:07.314Z,95070.41
2019-05-18T05:39:39.105Z,95073.47
2019-05-18T05:42:09.538Z,95069.81
2019-05-18T05:44:41.156Z,95068.27
2019-05-18T05:47:13.863Z,95063.48
2019-05-18T05:49:44.798Z,95067.89
2019-05-18T05:52:25.172Z,95067.47
2019-05-18T05:54:57.809Z,95069.68
2019-05-18T05:57:28.223Z,95071.92
2019-05-18T05:59:58.656Z,95069.63
2019-05-18T06:02:29.162Z,95067.88
2019-05-18T06:05:02.630Z,95074.31
2019-05-18T06:07:33.151Z,95077.84
2019-05-18T06:10:03.581Z,95075.59
2019-05-18T06:12:34.041Z,95085.13
2019-05-18T06:15:05.285Z,95082.95
2019-05-18T06:17:35.703Z,95079.00
2019-05-18T06:20:06.407Z,95077.66
2019-05-18T06:22:36.918Z,95078.98
2019-05-18T06:25:27.780Z,95070.34
2019-05-18T06:27:58.242Z,95073.36
2019-05-18T06:30:29.227Z,95074.59
2019-05-18T06:32:59.661Z,95073.20
2019-05-18T06:35:30.123Z,95065.42
2019-05-18T06:38:02.123Z,95071.30
2019-05-18T06:40:32.528Z,95073.55
2019-05-18T06:43:03.086Z,95077.05
2019-05-18T06:45:34.307Z,95079.13
2019-05-18T06:48:04.789Z,95077.72
2019-05-18T06:50:41.347Z,95085.11
2019-05-18T06:53:11.857Z,95074.14
2019-05-18T06:55:42.246Z,95074.16
2019-05-18T06:58:13.313Z,95072.03
2019-05-18T07:00:48.062Z,95067.53
2019-05-18T07:03:19.111Z,95074.01
2019-05-18T07:05:49.657Z,95074.42
2019-05-18T07:08:21.441Z,95072.41
2019-05-18T07:10:52.234Z,95072.41
2019-05-18T07:13:23.918Z,95078.19
2019-05-18T07:15:54.854Z,95074.39
2019-05-18T07:18:25.784Z,95071.55
2019-05-18T07:20:56.266Z,95070.03
2019-05-18T07:23:29.007Z,95066.06
2019-05-18T07:25:59.545Z,95067.73
2019-05-18T07:28:29.960Z,95065.32
2019-05-18T07:31:01.044Z,95067.99
2019-05-18T07:33:33.712Z,95065.88
2019-05-18T07:36:04.138Z,95063.38
2019-05-18T07:38:34.813Z,95067.47
2019-05-18T07:41:06.354Z,95068.59
2019-05-18T07:43:37.082Z,95070.62
2019-05-18T07:46:08.848Z,95068.63
2019-05-18T07:48:39.565Z,95072.89
2019-05-18T07:51:12.998Z,95066.92
2019-05-18T07:53:43.424Z,95062.37
2019-05-18T07:56:34.216Z,95069.88
2019-05-18T07:59:04.618Z,95063.05
2019-05-18T08:01:35.101Z,95060.20
2019-05-18T08:04:07.236Z,95061.67
2019-05-18T08:06:40.891Z,95069.18
2019-05-18T08:09:13.764Z,95064.07
2019-05-18T08:11:47.129Z,95064.55
2019-05-18T08:14:20.512Z,95062.87
2019-05-18T08:16:51.082Z,95059.56
2019-05-18T08:19:21.838Z,95058.77
2019-05-18T08:21:53.677Z,95060.25
2019-05-18T08:24:24.602Z,95062.63
2019-05-18T08:26:55.648Z,95071.09
2019-05-18T08:29:30.669Z,95064.09
2019-05-18T08:32:30.317Z,95062.17
2019-05-18T08:35:02.339Z,95063.90
2019-05-18T08:37:44.373Z,95067.59
2019-05-18T08:40:11.824Z,95067.68
2019-05-18T08:42:42.241Z,95067.05
2019-05-18T08:45:14.667Z,95071.55
2019-05-18T08:47:45.213Z,95068.66
2019-05-18T08:50:15.864Z,95069.88
2019-05-18T08:52:46.258Z,95060.44
2019-05-18T08:55:30.156Z,95062.14
2019-05-18T08:58:01.080Z,95068.22
2019-05-18T09:00:46.924Z,95067.95
2019-05-18T09:03:17.589Z,95076.66
2019-05-18T09:05:48.099Z,95078.56
2019-05-18T09:08:18.953Z,95082.76
2019-05-18T09:10:49.791Z,95077.94
2019-05-18T09:13:20.229Z,95076.78
2019-05-18T09:15:52.212Z,95081.42
2019-05-18T09:18:22.701Z,95073.86
2019-05-18T09:20:53.183Z,95082.20
2019-05-18T09:23:24.127Z,95072.95
2019-05-18T09:25:56.111Z,95069.13
2019-05-18T09:28:26.565Z,95067.20
2019-05-18T09:30:57.178Z,95068.66
2019-05-18T09:33:39.197Z,95074.31
2019-05-18T09:36:11.309Z,95075.63
2019-05-18T09:38:41.751Z,95070.36
2019-05-18T09:41:12.212Z,95072.39
2019-05-18T09:43:53.080Z,95078.45
2019-05-18T09:46:18.083Z,95075.91
2019-05-18T09:49:24.086Z,95071.83
2019-05-18T09:51:54.557Z,95063.88
2019-05-18T09:54:25.123Z,95070.20
2019-05-18T09:56:59.141Z,95060.70
2019-05-18T09:59:30.112Z,95070.06
2019-05-18T10:02:02.104Z,95070.48
2019-05-18T10:04:38.214Z,95066.76
2019-05-18T10:07:09.296Z,95065.34
2019-05-18T10:09:41.081Z,95067.86
2019-05-18T10:12:13.412Z,95072.30
2019-05-18T10:14:43.824Z,95075.38
2019-05-18T10:17:15.848Z,95060.37
2019-05-18T10:19:46.276Z,95059.61
2019-05-18T10:22:16.702Z,95062.92
2019-05-18T10:24:47.190Z,95061.09
2019-05-18T10:27:20.451Z,95060.34
2019-05-18T10:29:53.237Z,95060.81
2019-05-18T10:32:26.342Z,95056.80
2019-05-18T10:35:02.668Z,95054.05
2019-05-18T10:37:33.149Z,95056.47
2019-05-18T10:40:03.738Z,95056.28
2019-05-18T10:42:37.678Z,95055.31
2019-05-18T10:45:10.100Z,95048.72
2019-05-18T10:47:40.660Z,95049.22
2019-05-18T10:50:22.633Z,95046.47
2019-05-18T10:52:54.314Z,95046.45
2019-05-18T10:55:27.101Z,95043.16
2019-05-18T10:57:58.278Z,95043.42
2019-05-18T11:00:28.957Z,95028.44
2019-05-18T11:02:59.397Z,95033.23
2019-05-18T11:05:30.870Z,95033.06
2019-05-18T11:08:01.835Z,95033.45
2019-05-18T11:10:32.719Z,95027.79
2019-05-18T11:13:03.152Z,95023.25
2019-05-18T11:15:40.088Z,95029.95
2019-05-18T11:18:10.906Z,95026.02
2019-05-18T11:20:41.385Z,95026.75
2019-05-18T11:23:19.589Z,95033.86
2019-05-18T11:25:52.003Z,95034.46
2019-05-18T11:28:25.053Z,95029.28
2019-05-18T11:30:55.529Z,95024.86
2019-05-18T11:33:25.957Z,95029.16
2019-05-18T11:36:11.532Z,95021.57
2019-05-18T11:38:45.085Z,95032.77
2019-05-18T11:41:15.505Z,95024.60
2019-05-18T11:43:46.264Z,95027.24
2019-05-18T11:46:16.889Z,95015.39
2019-05-18T11:48:47.304Z,95022.61
2019-05-18T11:51:26.485Z,95016.41
2019-05-18T11:54:03.117Z,95016.16
2019-05-18T11:56:37.403Z,95012.36
2019-05-18T11:59:15.612Z,95008.36
2019-05-18T12:01:50.910Z,95007.32
2019-05-18T12:04:22.291Z,95009.76
2019-05-18T12:06:59.281Z,95004.77
2019-05-18T12:09:29.705Z,95005.70
2019-05-18T12:12:00.133Z,95005.27
2019-05-18T12:14:30.661Z,95002.64
2019-05-18T12:17:40.141Z,95002.19
2019-05-18T12:20:16.267Z,95006.91
2019-05-18T12:22:52.438Z,95002.88
2019-05-18T12:25:22.898Z,95003.48
2019-05-18T12:27:55.597Z,95001.09
2019-05-18T12:30:26.134Z,95004.28
2019-05-18T12:32:59.215Z,95000.52
2019-05-18T12:35:32.030Z,95004.25
2019-05-18T12:38:02.609Z,95011.59
2019-05-18T12:40:33.142Z,95006.23
2019-05-18T12:43:05.639Z,95004.66
2019-05-18T12:45:36.063Z,94999.65
2019-05-18T12:48:27.726Z,94999.16
2019-05-18T12:51:01.166Z,94999.73
2019-05-18T12:53:34.985Z,94998.55
2019-05-18T12:56:05.880Z,94996.53
2019-05-18T12:58:37.671Z,94992.88
2019-05-18T13:01:12.010Z,94999.94
2019-05-18T13:03:42.590Z,95001.48
2019-05-18T13:06:44.268Z,94995.05
2019-05-18T13:12:14.906Z,94995.61
2019-05-18T13:14:46.158Z,94990.85
2019-05-18T13:17:21.185Z,94986.56
2019-05-18T13:19:50.732Z,94996.44
2019-05-18T13:22:23.942Z,94995.30
2019-05-18T13:24:57.363Z,94992.55
2019-05-18T13:27:39.616Z,94994.58
2019-05-18T13:37:18.208Z,94988.08
2019-05-18T13:39:48.801Z,94984.03
2019-05-18T13:42:20.760Z,94981.72
2019-05-18T13:44:51.501Z,94978.17
2019-05-18T13:47:29.217Z,94976.31
2019-05-18T13:50:01.979Z,94977.23
2019-05-18T13:52:37.337Z,94975.92
2019-05-18T13:55:11.293Z,94974.28
2019-05-18T13:57:46.851Z,94978.16
2019-05-18T14:00:19.734Z,94982.30
2019-05-18T14:02:50.237Z,94983.50
2019-05-18T14:05:20.713Z,94982.00
2019-05-18T14:07:51.349Z,94985.03
2019-05-18T14:10:24.248Z,94990.98
2019-05-18T14:13:01.211Z,94996.42
2019-05-18T14:15:36.855Z,94999.60
2019-05-18T14:18:42.250Z,94996.69
2019-05-18T14:21:12.690Z,94997.92
2019-05-18T14:24:10.666Z,94997.30
2019-05-18T14:26:42.909Z,94991.08
2019-05-18T14:29:13.286Z,94987.34
2019-05-18T14:31:46.202Z,94991.17
2019-05-18T14:34:16.644Z,94985.86
2019-05-18T14:36:47.447Z,94990.18
2019-05-18T14:39:49.584Z,94984.33
2019-05-18T14:42:23.194Z,94984.88
2019-05-18T14:44:56.365Z,94985.73
2019-05-18T14:47:31.299Z,94982.72
2019-05-18T14:50:08.055Z,94978.30
2019-05-18T14:52:38.692Z,94981.50
2019-05-18T14:55:09.641Z,94976.09
2019-05-18T14:57:40.220Z,94967.56
2019-05-18T15:00:10.859Z,94967.22
2019-05-18T15:02:41.339Z,94969.59
2019-05-18T15:05:16.301Z,94968.08
2019-05-18T15:07:47.847Z,94973.13
2019-05-18T15:10:19.280Z,94973.30
2019-05-18T15:12:55.664Z,94976.18
2019-05-18T15:15:32.263Z,94974.73
2019-05-18T15:18:02.812Z,94974.95
2019-05-18T15:20:34.049Z,94971.22
2019-05-18T15:23:24.213Z,94968.87
2019-05-18T15:26:00.875Z,94970.19
2019-05-18T15:28:31.069Z,94975.81
2019-05-18T15:31:02.590Z,94970.55
2019-05-18T15:33:33.003Z,94965.97
2019-05-18T15:36:11.588Z,94968.03
2019-05-18T15:38:43.277Z,94966.53
2019-05-18T15:41:13.688Z,94964.78
2019-05-18T15:43:47.289Z,94967.39
2019-05-18T15:46:17.808Z,94964.75
2019-05-18T15:48:49.934Z,94957.63
2019-05-18T15:51:21.399Z,94950.61
2019-05-18T15:53:54.692Z,94954.19
2019-05-18T15:56:31.245Z,94950.73
2019-05-18T15:59:05.563Z,94952.06
2019-05-18T16:01:39.040Z,94954.47
2019-05-18T16:04:14.725Z,94956.94
2019-05-18T16:06:46.864Z,94960.72
2019-05-18T16:09:22.055Z,94960.97
2019-05-18T16:11:55.197Z,94953.69
2019-05-18T16:14:51.094Z,94954.09
2019-05-18T16:18:05.747Z,94947.79
2019-05-18T16:20:37.298Z,94955.48
2019-05-18T16:23:15.535Z,94953.93
2019-05-18T16:25:46.691Z,94950.55
2019-05-18T16:28:20.747Z,94942.13
2019-05-18T16:30:51.264Z,94947.27
2019-05-18T16:33:23.098Z,94944.95
2019-05-18T16:35:56.887Z,94946.64
2019-05-18T16:38:27.481Z,94951.38
2019-05-18T16:41:13.977Z,94945.76
2019-05-18T16:43:43.190Z,94952.11
2019-05-18T16:46:13.626Z,94952.77
2019-05-18T16:48:56.277Z,94957.99
2019-05-18T16:51:30.015Z,94955.41
2019-05-18T16:54:03.162Z,94956.09
2019-05-18T16:56:35.573Z,94962.68
2019-05-18T16:59:06.005Z,94960.52
2019-05-18T17:01:38.030Z,94959.58
2019-05-18T17:04:09.812Z,94967.12
2019-05-18T17:06:42.975Z,94957.73
2019-05-18T17:09:14.890Z,94958.84
2019-05-18T17:11:47.979Z,94961.13
2019-05-18T17:14:20.893Z,94962.96
2019-05-18T17:16:57.600Z,94960.92
2019-05-18T17:19:28.127Z,94960.89
2019-05-18T17:22:08.752Z,94963.81
2019-05-18T17:24:39.147Z,94957.55
2019-05-18T17:27:09.754Z,94957.27
2019-05-18T17:29:42.830Z,94952.55
2019-05-18T17:32:13.729Z,94956.52
2019-05-18T17:34:44.158Z,94956.98
2019-05-18T17:37:16.208Z,94958.00
2019-05-18T17:39:46.590Z,94960.15
2019-05-18T17:42:17.034Z,94959.47
2019-05-18T17:44:47.771Z,94955.64
2019-05-18T17:47:18.173Z,94966.69
2019-05-18T17:49:52.664Z,94965.41
2019-05-18T17:52:23.167Z,94966.83
2019-05-18T17:54:53.783Z,94964.22
2019-05-18T17:57:24.521Z,94965.20
2019-05-18T17:59:59.198Z,94966.63
2019-05-18T18:02:31.822Z,94968.52
2019-05-18T18:05:05.078Z,94963.95
2019-05-18T18:07:55.722Z,94961.41
2019-05-18T18:10:27.774Z,94964.73
2019-05-18T18:12:58.709Z,94964.09
2019-05-18T18:15:49.609Z,94969.94
2019-05-18T18:18:20.247Z,94975.28
2019-05-18T18:20:51.101Z,94987.66
2019-05-18T18:23:23.537Z,94984.77
2019-05-18T18:26:09.074Z,94982.20
2019-05-18T18:28:39.594Z,94981.30
2019-05-18T18:31:10.154Z,94987.13
2019-05-18T18:33:40.919Z,94989.09
2019-05-18T18:36:20.289Z,94985.78
2019-05-18T18:38:54.534Z,94994.70
2019-05-18T18:41:25.857Z,94991.25
2019-05-18T18:43:56.828Z,95002.02
2019-05-18T18:46:28.342Z,94993.69
2019-05-18T18:48:58.801Z,94990.38
2019-05-18T18:51:29.297Z,94989.80
2019-05-18T18:54:08.220Z,94989.72
2019-05-18T18:56:45.830Z,94991.69
2019-05-18T18:59:21.517Z,95000.17
2019-05-18T19:01:49.124Z,95002.98
2019-05-18T19:04:20.084Z,95004.42
2019-05-18T19:06:55.805Z,95004.69
2019-05-18T19:09:30.852Z,95002.75
2019-05-18T19:12:01.292Z,95009.67
2019-05-18T19:14:36.808Z,95012.97
2019-05-18T19:17:07.334Z,95018.05
2019-05-18T19:19:40.131Z,95019.89
2019-05-18T19:22:18.108Z,95021.91
2019-05-18T19:24:50.124Z,95026.40
2019-05-18T19:27:37.097Z,95024.45
2019-05-18T19:30:09.958Z,95027.28
2019-05-18T19:32:48.520Z,95025.70
2019-05-18T19:35:19.109Z,95025.67
2019-05-18T19:37:51.218Z,95028.58
2019-05-18T19:40:30.584Z,95028.79
2019-05-18T19:43:01.243Z,95027.41
2019-05-18T19:45:34.255Z,95042.38
2019-05-18T19:48:09.077Z,95045.80
2019-05-18T19:50:46.817Z,95041.09
2019-05-18T19:53:20.368Z,95044.40
2019-05-18T19:55:54.897Z,95049.91
2019-05-18T19:58:31.071Z,95056.72
2019-05-18T20:01:05.278Z,95054.41
2019-05-18T20:03:35.927Z,95053.97
2019-05-18T20:06:39.987Z,95052.38
2019-05-18T20:08:47.441Z,95047.42
2019-05-18T20:11:21.352Z,95048.04
2019-05-18T20:14:25.764Z,95051.62
2019-05-18T20:16:56.224Z,95051.50
2019-05-18T20:19:38.619Z,95046.83
2019-05-18T20:22:00.907Z,95050.66
2019-05-18T20:24:32.180Z,95043.52
2019-05-18T20:27:11.704Z,95048.94
2019-05-18T20:29:46.748Z,95050.62
2019-05-18T20:32:17.176Z,95052.31
2019-05-18T20:34:51.994Z,95053.20
2019-05-18T20:37:25.742Z,95058.34
2019-05-18T20:39:56.165Z,95060.59
2019-05-18T20:42:28.274Z,95055.91
2019-05-18T20:44:58.673Z,95051.12
2019-05-18T20:47:29.175Z,95053.88
2019-05-18T20:50:10.533Z,95054.45
2019-05-18T20:52:44.263Z,95048.08
2019-05-18T20:55:17.658Z,95041.22
2019-05-18T20:57:48.596Z,95046.05
2019-05-18T21:00:19.685Z,95046.40
2019-05-18T21:02:50.634Z,95042.18
2019-05-18T21:05:21.640Z,95046.81
2019-05-18T21:07:58.660Z,95051.94
2019-05-18T21:10:44.044Z,95042.40
2019-05-18T21:13:20.121Z,95049.93
2019-05-18T21:15:54.105Z,95044.94
2019-05-18T21:18:26.260Z,95054.30
2019-05-18T21:20:57.081Z,95041.75
2019-05-18T21:23:52.054Z,95046.56
2019-05-18T21:26:22.170Z,95044.97
2019-05-18T21:28:59.138Z,95044.70
2019-05-18T21:31:28.973Z,95043.97
2019-05-18T21:34:11.665Z,95046.09
2019-05-18T21:36:42.142Z,95039.44
2019-05-18T21:39:13.041Z,95040.23
2019-05-18T21:41:43.503Z,95041.31
2019-05-18T21:44:14.136Z,95038.92
2019-05-18T21:46:44.899Z,95034.12
2019-05-18T21:49:15.489Z,95030.39
2019-05-18T21:51:45.929Z,95032.27
2019-05-18T21:54:16.358Z,95030.13
2019-05-18T21:56:48.381Z,95039.46
2019-05-18T21:59:19.277Z,95026.33
2019-05-18T22:01:53.107Z,95022.75
2019-05-18T22:04:23.891Z,95022.16
2019-05-18T22:06:54.671Z,95014.23
2019-05-18T22:09:25.177Z,95009.39
2019-05-18T22:11:55.598Z,95010.45
2019-05-18T22:14:35.042Z,95013.15
2019-05-18T22:17:07.074Z,95009.73
2019-05-18T22:19:43.575Z,95014.31
2019-05-18T22:22:12.229Z,95011.38
2019-05-18T22:24:43.156Z,95012.95
2019-05-18T22:27:15.953Z,95009.48
2019-05-18T22:29:49.683Z,95011.38
2019-05-18T22:32:20.147Z,95006.27
2019-05-18T22:34:52.900Z,95005.66
2019-05-18T22:37:25.747Z,95002.42
2019-05-18T22:40:10.707Z,95002.68
2019-05-18T22:42:41.154Z,95000.00
2019-05-18T22:45:11.591Z,95001.66
2019-05-18T22:47:42.081Z,94999.86
2019-05-18T22:50:12.472Z,94995.96
2019-05-18T22:52:57.505Z,94991.23
2019-05-18T22:55:28.260Z,94984.86
2019-05-18T22:57:58.747Z,94980.44
2019-05-18T23:00:29.413Z,94986.58
2019-05-18T23:02:59.875Z,94981.49
2019-05-18T23:05:31.837Z,94980.67
2019-05-18T23:08:34.378Z,94972.91
2019-05-18T23:11:05.402Z,94972.67
2019-05-18T23:13:37.886Z,94971.34
2019-05-18T23:16:08.645Z,94959.05
2019-05-18T23:18:56.303Z,94963.49
2019-05-18T23:21:19.510Z,94961.81
2019-05-18T23:23:49.976Z,94960.99
2019-05-18T23:26:26.402Z,94956.16
2019-05-18T23:28:57.410Z,94956.87
2019-05-18T23:31:27.871Z,94963.09
2019-05-18T23:33:58.338Z,94947.65
2019-05-18T23:36:32.198Z,94945.31
2019-05-18T23:39:10.829Z,94938.55
2019-05-18T23:41:41.596Z,94934.33
2019-05-18T23:44:19.226Z,94929.66
2019-05-18T23:46:53.842Z,94930.42
2019-05-18T23:49:24.736Z,94926.06
2019-05-18T23:51:55.308Z,94927.34
2019-05-18T23:54:25.737Z,94931.03
2019-05-18T23:56:56.201Z,94921.66
2019-05-18T23:59:28.255Z,94920.42
